createdAt,value
2017-12-26T00:00:38.609Z,27.2
2017-12-26T00:01:38.294Z,27.3
2017-12-26T00:02:41.561Z,27.2
2017-12-26T00:03:41.705Z,27.2
2017-12-26T00:04:38.804Z,27.3
2017-12-26T00:05:38.548Z,27.2
2017-12-26T00:06:41.741Z,27.3
2017-12-26T00:07:41.510Z,27.3
2017-12-26T00:08:41.836Z,27.3
2017-12-26T00:09:38.721Z,27.3
2017-12-26T00:10:38.988Z,27.3
2017-12-26T00:11:38.749Z,27.3
2017-12-26T00:12:42.010Z,27.3
2017-12-26T00:13:42.017Z,27.3
2017-12-26T00:14:39.188Z,27.3
2017-12-26T00:15:42.094Z,27.3
2017-12-26T00:16:39.243Z,27.3
2017-12-26T00:17:42.204Z,27.2
2017-12-26T00:18:39.350Z,27.2
2017-12-26T00:19:39.405Z,27.3
2017-12-26T00:20:39.141Z,27.2
2017-12-26T00:21:39.468Z,27.3
2017-12-26T00:22:39.200Z,27.3
2017-12-26T00:23:42.464Z,27.2
2017-12-26T00:24:42.548Z,27.2
2017-12-26T00:25:42.626Z,27.3
2017-12-26T00:26:39.904Z,27.2
2017-12-26T00:27:42.756Z,27.2
2017-12-26T00:28:42.780Z,27.2
2017-12-26T00:29:42.484Z,27.2
2017-12-26T00:30:39.657Z,27.2
2017-12-26T00:31:42.999Z,27.2
2017-12-26T00:32:39.778Z,27.2
2017-12-26T00:33:42.712Z,27.2
2017-12-26T00:34:39.906Z,27.2
2017-12-26T00:35:43.176Z,27.2
2017-12-26T00:36:39.977Z,27.2
2017-12-26T00:37:40.006Z,27.2
2017-12-26T00:38:40.058Z,27.3
2017-12-26T00:39:43.339Z,27.3
2017-12-26T00:40:40.140Z,27.3
2017-12-26T00:41:43.048Z,27.3
2017-12-26T00:42:43.333Z,27.3
2017-12-26T00:43:43.071Z,27.3
2017-12-26T00:44:40.279Z,27.3
2017-12-26T00:45:40.356Z,27.2
2017-12-26T00:46:40.723Z,27.2
2017-12-26T00:47:40.584Z,27.3
2017-12-26T00:48:40.611Z,27.3
2017-12-26T00:49:40.651Z,27.2
2017-12-26T00:50:40.658Z,27.2
2017-12-26T00:51:41.060Z,27.2
2017-12-26T00:52:43.973Z,27.2
2017-12-26T00:53:40.824Z,27.3
2017-12-26T00:54:40.873Z,27.2
2017-12-26T00:55:41.065Z,27.3
2017-12-26T00:56:44.232Z,27.2
2017-12-26T00:57:41.051Z,27.2
2017-12-26T00:58:41.133Z,27.2
2017-12-26T00:59:41.233Z,27.3
2017-12-26T01:00:41.677Z,27.2
2017-12-26T01:01:44.207Z,27.2
2017-12-26T01:02:44.640Z,27.2
2017-12-26T01:03:41.491Z,27.2
2017-12-26T01:04:41.424Z,27.2
2017-12-26T01:05:41.793Z,27.2
2017-12-26T01:06:41.594Z,27.2
2017-12-26T01:07:44.413Z,27.2
2017-12-26T01:08:44.508Z,27.2
2017-12-26T01:09:41.706Z,27.2
2017-12-26T01:10:44.569Z,27.2
2017-12-26T01:11:42.079Z,27.2
2017-12-26T01:12:42.156Z,27.2
2017-12-26T01:13:45.076Z,27.2
2017-12-26T01:14:42.195Z,27.2
2017-12-26T01:15:41.976Z,27.2
2017-12-26T01:16:42.037Z,27.2
2017-12-26T01:17:45.004Z,27.2
2017-12-26T01:18:42.102Z,27.2
2017-12-26T01:19:42.196Z,27.2
2017-12-26T01:20:45.409Z,27.2
2017-12-26T01:21:45.450Z,27.2
2017-12-26T01:22:42.613Z,27.2
2017-12-26T01:23:45.542Z,27.2
2017-12-26T01:24:42.372Z,27.2
2017-12-26T01:25:42.424Z,27.2
2017-12-26T01:26:45.702Z,27.2
2017-12-26T01:27:45.441Z,27.2
2017-12-26T01:28:42.899Z,27.2
2017-12-26T01:29:42.660Z,27.2
2017-12-26T01:30:45.980Z,27.2
2017-12-26T01:31:42.771Z,27.2
2017-12-26T01:32:45.982Z,27.2
2017-12-26T01:33:43.190Z,27.1
2017-12-26T01:34:42.917Z,27.2
2017-12-26T01:35:43.236Z,27.2
2017-12-26T01:36:43.014Z,27.2
2017-12-26T01:37:43.383Z,27.2
2017-12-26T01:38:43.434Z,27.1
2017-12-26T01:39:43.187Z,27.2
2017-12-26T01:40:43.218Z,27.2
2017-12-26T01:41:43.300Z,27.2
2017-12-26T01:42:46.510Z,27.2
2017-12-26T01:43:43.431Z,27.2
2017-12-26T01:44:43.881Z,27.2
2017-12-26T01:45:43.687Z,27.2
2017-12-26T01:46:43.897Z,27.2
2017-12-26T01:47:43.479Z,27.2
2017-12-26T01:48:43.910Z,27.2
2017-12-26T01:49:46.888Z,27.2
2017-12-26T01:50:43.995Z,27.2
2017-12-26T01:51:46.915Z,27.2
2017-12-26T01:52:43.860Z,27.1
2017-12-26T01:53:43.939Z,27.2
2017-12-26T01:54:43.902Z,27.2
2017-12-26T01:55:46.842Z,27.2
2017-12-26T01:56:47.254Z,27.2
2017-12-26T01:57:47.362Z,27.2
2017-12-26T01:58:47.431Z,27.2
2017-12-26T01:59:44.302Z,27.2
2017-12-26T02:00:44.441Z,27.2
2017-12-26T02:01:47.715Z,27.2
2017-12-26T02:02:44.783Z,27.2
2017-12-26T02:03:47.792Z,27.2
2017-12-26T02:04:44.649Z,27.2
2017-12-26T02:05:44.721Z,27.2
2017-12-26T02:06:44.745Z,27.1
2017-12-26T02:07:47.969Z,27.1
2017-12-26T02:08:47.755Z,27.1
2017-12-26T02:09:44.995Z,27.1
2017-12-26T02:10:44.909Z,27.1
2017-12-26T02:11:45.294Z,27.1
2017-12-26T02:12:50.651Z,27.1
2017-12-26T02:13:48.239Z,27.1
2017-12-26T02:14:45.462Z,27.1
2017-12-26T02:15:48.324Z,27.1
2017-12-26T02:16:48.417Z,27.1
2017-12-26T02:17:45.568Z,27.1
2017-12-26T02:18:45.569Z,27.1
2017-12-26T02:19:45.579Z,27.1
2017-12-26T02:20:48.657Z,27.1
2017-12-26T02:21:45.740Z,27.1
2017-12-26T02:22:45.576Z,27.1
2017-12-26T02:23:48.688Z,27.1
2017-12-26T02:24:45.853Z,27.1
2017-12-26T02:25:48.852Z,27.1
2017-12-26T02:26:48.587Z,27.1
2017-12-26T02:27:48.905Z,27.1
2017-12-26T02:28:48.976Z,27.1
2017-12-26T02:29:49.032Z,27.1
2017-12-26T02:30:45.864Z,27.1
2017-12-26T02:31:46.258Z,27.2
2017-12-26T02:32:49.144Z,27.2
2017-12-26T02:33:48.890Z,27.1
2017-12-26T02:34:49.211Z,27.1
2017-12-26T02:35:48.982Z,27.1
2017-12-26T02:36:46.168Z,27.1
2017-12-26T02:37:49.095Z,27.1
2017-12-26T02:38:49.172Z,27.1
2017-12-26T02:39:46.347Z,27.1
2017-12-26T02:40:49.541Z,27.1
2017-12-26T02:41:46.427Z,27.1
2017-12-26T02:42:49.675Z,27.1
2017-12-26T02:43:46.564Z,27.1
2017-12-26T02:44:49.579Z,27.1
2017-12-26T02:45:46.730Z,27.1
2017-12-26T02:46:46.804Z,27.1
2017-12-26T02:47:46.830Z,27.1
2017-12-26T02:48:46.934Z,27.1
2017-12-26T02:49:46.928Z,27.1
2017-12-26T02:50:47.374Z,27.1
2017-12-26T02:51:47.047Z,27.1
2017-12-26T02:52:47.052Z,27.1
2017-12-26T02:53:47.453Z,27.1
2017-12-26T02:54:50.293Z,27.1
2017-12-26T02:55:47.153Z,27.1
2017-12-26T02:56:50.396Z,27.1
2017-12-26T02:57:47.624Z,27.1
2017-12-26T02:58:50.247Z,27.1
2017-12-26T02:59:47.314Z,27.1
2017-12-26T03:00:50.312Z,27.1
2017-12-26T03:01:47.838Z,27.1
2017-12-26T03:02:47.538Z,27.1
2017-12-26T03:03:47.619Z,27.1
2017-12-26T03:04:48.018Z,27.1
2017-12-26T03:05:47.652Z,27.1
2017-12-26T03:06:47.732Z,27.1
2017-12-26T03:07:50.670Z,27.1
2017-12-26T03:08:50.956Z,27.1
2017-12-26T03:09:47.892Z,27.1
2017-12-26T03:10:50.840Z,27.1
2017-12-26T03:11:48.273Z,27.1
2017-12-26T03:12:48.012Z,27.1
2017-12-26T03:13:48.038Z,27.1
2017-12-26T03:14:48.113Z,27.1
2017-12-26T03:15:48.151Z,27.1
2017-12-26T03:16:48.462Z,27.1
2017-12-26T03:17:48.298Z,27.1
2017-12-26T03:18:48.264Z,27.1
2017-12-26T03:19:48.308Z,27.1
2017-12-26T03:20:48.638Z,27.1
2017-12-26T03:21:48.676Z,27.1
2017-12-26T03:22:48.736Z,27.1
2017-12-26T03:23:51.706Z,27.1
2017-12-26T03:24:51.437Z,27.1
2017-12-26T03:25:48.944Z,27.1
2017-12-26T03:26:48.993Z,27.1
2017-12-26T03:27:48.722Z,27.1
2017-12-26T03:28:51.684Z,27.1
2017-12-26T03:29:49.136Z,27.1
2017-12-26T03:30:48.902Z,27.1
2017-12-26T03:31:52.133Z,27.1
2017-12-26T03:32:51.907Z,27.1
2017-12-26T03:33:49.168Z,27.1
2017-12-26T03:34:52.327Z,27.1
2017-12-26T03:35:49.156Z,27.1
2017-12-26T03:36:49.239Z,27.1
2017-12-26T03:37:52.193Z,27
2017-12-26T03:38:52.247Z,27.1
2017-12-26T03:39:52.685Z,27
2017-12-26T03:40:52.683Z,27.1
2017-12-26T03:41:52.767Z,27
2017-12-26T03:42:49.722Z,27.1
2017-12-26T03:43:49.849Z,27.1
2017-12-26T03:44:52.723Z,27.1
2017-12-26T03:45:50.217Z,27.1
2017-12-26T03:46:53.092Z,27.1
2017-12-26T03:47:49.990Z,27.1
2017-12-26T03:48:50.350Z,27.1
2017-12-26T03:49:50.307Z,27.1
2017-12-26T03:50:53.282Z,27.1
2017-12-26T03:51:50.392Z,27.1
2017-12-26T03:52:50.427Z,27.1
2017-12-26T03:53:50.213Z,27.1
2017-12-26T03:54:50.210Z,27.1
2017-12-26T03:55:50.615Z,27.1
2017-12-26T03:56:53.197Z,27.1
2017-12-26T03:57:50.636Z,27.1
2017-12-26T03:58:50.720Z,27.1
2017-12-26T03:59:50.810Z,27.1
2017-12-26T04:00:50.587Z,27.1
2017-12-26T04:01:50.668Z,27.1
2017-12-26T04:02:50.607Z,27
2017-12-26T04:03:50.689Z,27.1
2017-12-26T04:04:51.065Z,27
2017-12-26T04:05:51.051Z,27.1
2017-12-26T04:06:50.745Z,27.1
2017-12-26T04:07:51.073Z,27.1
2017-12-26T04:08:53.703Z,27.1
2017-12-26T04:09:54.031Z,27.1
2017-12-26T04:10:51.224Z,27.1
2017-12-26T04:11:50.985Z,27.1
2017-12-26T04:12:53.873Z,27.1
2017-12-26T04:13:51.388Z,27.1
2017-12-26T04:14:51.434Z,27.1
2017-12-26T04:15:51.407Z,27.1
2017-12-26T04:16:54.366Z,27.1
2017-12-26T04:17:51.539Z,27.1
2017-12-26T04:18:51.313Z,27.1
2017-12-26T04:19:51.674Z,27.1
2017-12-26T04:20:51.790Z,27.1
2017-12-26T04:21:51.640Z,27.1
2017-12-26T04:22:54.883Z,27.1
2017-12-26T04:23:51.689Z,27.1
2017-12-26T04:24:54.945Z,27.1
2017-12-26T04:25:54.757Z,27.1
2017-12-26T04:26:55.137Z,27.1
2017-12-26T04:27:51.967Z,27.1
2017-12-26T04:28:55.236Z,27.1
2017-12-26T04:29:52.189Z,27.1
2017-12-26T04:30:52.238Z,27.1
2017-12-26T04:31:52.705Z,27.1
2017-12-26T04:32:52.363Z,27.1
2017-12-26T04:33:55.673Z,27.1
2017-12-26T04:34:55.775Z,27.1
2017-12-26T04:35:52.931Z,27.1
2017-12-26T04:36:52.869Z,27.1
2017-12-26T04:37:55.487Z,27.1
2017-12-26T04:38:52.731Z,27.1
2017-12-26T04:39:55.930Z,27.1
2017-12-26T04:40:52.789Z,27.1
2017-12-26T04:41:53.189Z,27.1
2017-12-26T04:42:53.187Z,27.1
2017-12-26T04:43:56.167Z,27.1
2017-12-26T04:44:52.970Z,27.1
2017-12-26T04:45:53.023Z,27.1
2017-12-26T04:46:53.025Z,27.1
2017-12-26T04:47:53.353Z,27.1
2017-12-26T04:48:53.129Z,27.1
2017-12-26T04:49:56.308Z,27.1
2017-12-26T04:50:56.450Z,27.1
2017-12-26T04:51:53.229Z,27.1
2017-12-26T04:52:56.138Z,27.1
2017-12-26T04:53:53.333Z,27.1
2017-12-26T04:54:56.519Z,27.1
2017-12-26T04:55:56.222Z,27.1
2017-12-26T04:56:53.774Z,27.1
2017-12-26T04:57:53.403Z,27.1
2017-12-26T04:58:53.772Z,27.1
2017-12-26T04:59:56.707Z,27.1
2017-12-26T05:00:53.912Z,27.1
2017-12-26T05:01:56.506Z,27.1
2017-12-26T05:02:53.642Z,27.1
2017-12-26T05:03:56.887Z,27.1
2017-12-26T05:04:53.795Z,27.1
2017-12-26T05:05:57.052Z,27.1
2017-12-26T05:06:53.935Z,27.1
2017-12-26T05:07:56.819Z,27.1
2017-12-26T05:08:56.987Z,27.1
2017-12-26T05:09:54.081Z,27.1
2017-12-26T05:10:54.100Z,27.1
2017-12-26T05:11:54.142Z,27.1
2017-12-26T05:12:54.171Z,27.1
2017-12-26T05:13:54.281Z,27.1
2017-12-26T05:14:57.178Z,27.1
2017-12-26T05:15:54.680Z,27.1
2017-12-26T05:16:57.578Z,27.1
2017-12-26T05:17:54.422Z,27.1
2017-12-26T05:18:54.817Z,27.1
2017-12-26T05:19:57.806Z,27.1
2017-12-26T05:20:57.758Z,27.1
2017-12-26T05:21:54.671Z,27.1
2017-12-26T05:22:57.612Z,27.1
2017-12-26T05:23:55.077Z,27.1
2017-12-26T05:24:55.085Z,27.1
2017-12-26T05:25:55.195Z,27.1
2017-12-26T05:26:54.917Z,27.1
2017-12-26T05:27:58.195Z,27.1
2017-12-26T05:28:55.281Z,27.1
2017-12-26T05:29:58.187Z,27.1
2017-12-26T05:30:55.044Z,27.1
2017-12-26T05:31:57.951Z,27.1
2017-12-26T05:32:58.297Z,27.1
2017-12-26T05:33:55.140Z,27.1
2017-12-26T05:34:55.297Z,27.1
2017-12-26T05:35:55.656Z,27.1
2017-12-26T05:36:58.557Z,27.1
2017-12-26T05:37:58.559Z,27.1
2017-12-26T05:38:55.703Z,27.1
2017-12-26T05:39:55.417Z,27.1
2017-12-26T05:40:58.313Z,27.1
2017-12-26T05:41:55.769Z,27.1
2017-12-26T05:42:55.498Z,27.1
2017-12-26T05:43:58.735Z,27.1
2017-12-26T05:44:55.566Z,27.1
2017-12-26T05:45:55.728Z,27.2
2017-12-26T05:46:58.905Z,27.2
2017-12-26T05:47:56.076Z,27.1
2017-12-26T05:48:55.819Z,27.1
2017-12-26T05:49:56.193Z,27.1
2017-12-26T05:50:58.802Z,27.2
2017-12-26T05:51:55.988Z,27.1
2017-12-26T05:52:56.313Z,27.1
2017-12-26T05:53:56.093Z,27.1
2017-12-26T05:54:56.524Z,27.1
2017-12-26T05:55:56.527Z,27.1
2017-12-26T05:56:56.271Z,27.1
2017-12-26T05:57:56.373Z,27.1
2017-12-26T05:58:59.599Z,27.1
2017-12-26T05:59:59.680Z,27.1
2017-12-26T06:00:59.678Z,27.1
2017-12-26T06:01:59.396Z,27.1
2017-12-26T06:02:56.903Z,27.1
2017-12-26T06:03:56.735Z,27.1
2017-12-26T06:04:59.909Z,27.1
2017-12-26T06:05:56.706Z,27.1
2017-12-26T06:06:59.610Z,27.1
2017-12-26T06:07:59.655Z,27.1
2017-12-26T06:08:57.076Z,27.1
2017-12-26T06:09:57.117Z,27.1
2017-12-26T06:10:56.865Z,27.1
2017-12-26T06:11:59.794Z,27.1
2017-12-26T06:12:59.864Z,27.1
2017-12-26T06:13:57.384Z,27.1
2017-12-26T06:15:00.296Z,27.1
2017-12-26T06:15:57.426Z,27.1
2017-12-26T06:17:00.064Z,27.1
2017-12-26T06:17:57.259Z,27.1
2017-12-26T06:19:00.196Z,27.1
2017-12-26T06:19:57.679Z,27.1
2017-12-26T06:20:57.446Z,27.1
2017-12-26T06:22:00.738Z,27.1
2017-12-26T06:22:57.459Z,27.1
2017-12-26T06:23:57.507Z,27.1
2017-12-26T06:24:57.893Z,27.1
2017-12-26T06:25:57.935Z,27.1
2017-12-26T06:26:57.560Z,27.1
2017-12-26T06:28:00.526Z,27.1
2017-12-26T06:28:57.634Z,27.1
2017-12-26T06:30:00.910Z,27.1
2017-12-26T06:30:58.005Z,27.1
2017-12-26T06:32:00.648Z,27.1
2017-12-26T06:32:57.881Z,27.2
2017-12-26T06:33:57.859Z,27.1
2017-12-26T06:35:01.146Z,27.2
2017-12-26T06:35:57.974Z,27.1
2017-12-26T06:37:00.930Z,27.1
2017-12-26T06:37:58.174Z,27.2
2017-12-26T06:38:58.508Z,27.2
2017-12-26T06:40:01.079Z,27.1
2017-12-26T06:40:58.565Z,27.2
2017-12-26T06:41:58.283Z,27.2
2017-12-26T06:43:01.534Z,27.2
2017-12-26T06:43:58.446Z,27.1
2017-12-26T06:44:58.522Z,27.1
2017-12-26T06:46:01.425Z,27.2
2017-12-26T06:46:58.613Z,27.1
2017-12-26T06:47:58.700Z,27.1
2017-12-26T06:49:01.528Z,27.1
2017-12-26T06:50:01.854Z,27.1
2017-12-26T06:50:58.747Z,27.1
2017-12-26T06:51:58.850Z,27.1
2017-12-26T06:53:02.032Z,27.1
2017-12-26T06:53:59.201Z,27.1
2017-12-26T06:55:01.857Z,27.1
2017-12-26T06:56:02.252Z,27.1
2017-12-26T06:56:59.442Z,27.1
2017-12-26T06:57:59.515Z,27.1
2017-12-26T06:58:59.160Z,27.1
2017-12-26T06:59:59.248Z,27.1
2017-12-26T07:01:02.459Z,27.1
2017-12-26T07:02:02.576Z,27.1
2017-12-26T07:03:02.652Z,27.1
2017-12-26T07:03:59.475Z,27.1
2017-12-26T07:04:59.623Z,27.1
2017-12-26T07:05:59.601Z,27.1
2017-12-26T07:06:59.929Z,27.1
2017-12-26T07:08:00.011Z,27.1
2017-12-26T07:09:02.633Z,27.1
2017-12-26T07:10:03.076Z,27.1
2017-12-26T07:10:59.897Z,27.1
2017-12-26T07:12:02.823Z,27.1
2017-12-26T07:13:00.061Z,27.1
2017-12-26T07:14:00.360Z,27.1
2017-12-26T07:15:03.354Z,27.1
2017-12-26T07:16:03.393Z,27.1
2017-12-26T07:17:00.247Z,27.1
2017-12-26T07:18:00.559Z,27.1
2017-12-26T07:19:03.599Z,27.1
2017-12-26T07:20:00.618Z,27.1
2017-12-26T07:21:00.652Z,27.1
2017-12-26T07:22:03.606Z,27.1
2017-12-26T07:23:00.558Z,27.1
2017-12-26T07:24:00.527Z,27.1
2017-12-26T07:25:03.950Z,27.1
2017-12-26T07:26:03.920Z,27.1
2017-12-26T07:27:00.737Z,27.1
2017-12-26T07:28:00.763Z,27.1
2017-12-26T07:29:01.127Z,27.1
2017-12-26T07:30:00.895Z,27.1
2017-12-26T07:31:04.163Z,27.1
2017-12-26T07:32:03.828Z,27.1
2017-12-26T07:33:04.019Z,27.2
2017-12-26T07:34:04.306Z,27.1
2017-12-26T07:35:01.169Z,27.2
2017-12-26T07:36:01.161Z,27.1
2017-12-26T07:37:01.599Z,27.1
2017-12-26T07:38:01.295Z,27.1
2017-12-26T07:39:04.585Z,27.2
2017-12-26T07:40:01.762Z,27.1
2017-12-26T07:41:04.684Z,27.1
2017-12-26T07:42:04.693Z,27.1
2017-12-26T07:43:04.369Z,27.2
2017-12-26T07:44:01.990Z,27.2
2017-12-26T07:45:01.653Z,27.2
2017-12-26T07:46:02.019Z,27.2
2017-12-26T07:47:01.736Z,27.2
2017-12-26T07:48:04.897Z,27.1
2017-12-26T07:49:04.677Z,27.1
2017-12-26T07:50:02.158Z,27.1
2017-12-26T07:51:05.080Z,27.1
2017-12-26T07:52:01.962Z,27.1
2017-12-26T07:53:01.925Z,27.1
2017-12-26T07:54:05.163Z,27.1
2017-12-26T07:55:02.038Z,27.1
2017-12-26T07:56:05.210Z,27.1
2017-12-26T07:57:02.137Z,27.1
2017-12-26T07:58:05.464Z,27.1
2017-12-26T07:59:02.554Z,27.1
2017-12-26T08:00:05.517Z,27.1
2017-12-26T08:01:02.797Z,27.1
2017-12-26T08:02:05.274Z,27.1
2017-12-26T08:03:02.763Z,27.1
2017-12-26T08:04:02.583Z,27.1
2017-12-26T08:05:02.965Z,27.1
2017-12-26T08:06:05.580Z,27.1
2017-12-26T08:07:05.680Z,27.1
2017-12-26T08:08:05.752Z,27.1
2017-12-26T08:09:05.849Z,27.1
2017-12-26T08:10:05.968Z,27.1
2017-12-26T08:11:06.268Z,27.1
2017-12-26T08:12:06.279Z,27.1
2017-12-26T08:13:06.306Z,27.1
2017-12-26T08:14:03.445Z,27.1
2017-12-26T08:15:06.035Z,27.1
2017-12-26T08:16:06.432Z,27.1
2017-12-26T08:17:03.570Z,27.1
2017-12-26T08:18:03.228Z,27.1
2017-12-26T08:19:06.520Z,27.1
2017-12-26T08:20:06.589Z,27.1
2017-12-26T08:21:03.527Z,27.1
2017-12-26T08:22:06.703Z,27.1
2017-12-26T08:23:03.557Z,27.1
2017-12-26T08:24:03.622Z,27.1
2017-12-26T08:25:03.963Z,27.1
2017-12-26T08:26:04.063Z,27.1
2017-12-26T08:27:03.843Z,27.1
2017-12-26T08:28:03.763Z,27.1
2017-12-26T08:29:03.920Z,27.1
2017-12-26T08:30:07.139Z,27.1
2017-12-26T08:31:04.241Z,27.1
2017-12-26T08:32:04.362Z,27.1
2017-12-26T08:33:04.096Z,27.2
2017-12-26T08:34:04.498Z,27.2
2017-12-26T08:35:04.178Z,27.2
2017-12-26T08:36:04.282Z,27.2
2017-12-26T08:37:04.649Z,27.2
2017-12-26T08:38:04.356Z,27.2
2017-12-26T08:39:04.734Z,27.2
2017-12-26T08:40:04.508Z,27.2
2017-12-26T08:41:04.582Z,27.2
2017-12-26T08:42:07.772Z,27.1
2017-12-26T08:43:04.621Z,27.2
2017-12-26T08:44:07.877Z,27.2
2017-12-26T08:45:07.982Z,27.2
2017-12-26T08:46:04.810Z,27.2
2017-12-26T08:47:07.955Z,27.1
2017-12-26T08:48:05.115Z,27.2
2017-12-26T08:49:08.104Z,27.1
2017-12-26T08:50:08.160Z,27.2
2017-12-26T08:51:07.916Z,27.1
2017-12-26T08:52:08.199Z,27.2
2017-12-26T08:53:05.061Z,27.2
2017-12-26T08:54:05.412Z,27.2
2017-12-26T08:55:08.056Z,27.2
2017-12-26T08:56:08.191Z,27.2
2017-12-26T08:57:05.572Z,27.1
2017-12-26T08:58:08.562Z,27.2
2017-12-26T08:59:08.259Z,27.2
2017-12-26T09:00:08.667Z,27.2
2017-12-26T09:01:05.775Z,27.2
2017-12-26T09:02:05.852Z,27.2
2017-12-26T09:03:08.770Z,27.2
2017-12-26T09:04:05.906Z,27.2
2017-12-26T09:05:06.034Z,27.2
2017-12-26T09:06:05.724Z,27.2
2017-12-26T09:07:05.761Z,27.2
2017-12-26T09:08:05.797Z,27.2
2017-12-26T09:09:09.009Z,27.2
2017-12-26T09:10:08.784Z,27.2
2017-12-26T09:11:05.984Z,27.2
2017-12-26T09:12:08.853Z,27.2
2017-12-26T09:13:06.024Z,27.2
2017-12-26T09:14:06.139Z,27.2
2017-12-26T09:15:06.426Z,27.2
2017-12-26T09:16:06.525Z,27.2
2017-12-26T09:17:09.139Z,27.2
2017-12-26T09:18:06.228Z,27.2
2017-12-26T09:19:06.248Z,27.2
2017-12-26T09:20:06.610Z,27.2
2017-12-26T09:21:09.226Z,27.2
2017-12-26T09:22:09.634Z,27.2
2017-12-26T09:23:09.666Z,27.2
2017-12-26T09:24:09.763Z,27.2
2017-12-26T09:25:06.868Z,27.2
2017-12-26T09:26:06.913Z,27.2
2017-12-26T09:27:07.025Z,27.2
2017-12-26T09:28:07.095Z,27.2
2017-12-26T09:29:06.898Z,27.2
2017-12-26T09:30:09.953Z,27.2
2017-12-26T09:31:09.672Z,27.2
2017-12-26T09:32:09.773Z,27.2
2017-12-26T09:33:07.326Z,27.2
2017-12-26T09:34:07.308Z,27.2
2017-12-26T09:35:07.422Z,27.2
2017-12-26T09:36:10.282Z,27.2
2017-12-26T09:37:09.964Z,27.2
2017-12-26T09:38:07.155Z,27.3
2017-12-26T09:39:07.561Z,27.3
2017-12-26T09:40:07.337Z,27.3
2017-12-26T09:41:07.401Z,27.3
2017-12-26T09:42:07.775Z,27.3
2017-12-26T09:43:07.832Z,27.3
2017-12-26T09:44:10.830Z,27.3
2017-12-26T09:45:10.765Z,27.3
2017-12-26T09:46:08.030Z,27.4
2017-12-26T09:47:08.021Z,27.4
2017-12-26T09:48:07.723Z,27.4
2017-12-26T09:49:11.006Z,27.4
2017-12-26T09:50:07.799Z,27.4
2017-12-26T09:51:07.942Z,27.4
2017-12-26T09:52:07.879Z,27.4
2017-12-26T09:53:07.928Z,27.4
2017-12-26T09:54:11.196Z,27.4
2017-12-26T09:55:08.385Z,27.4
2017-12-26T09:56:08.028Z,27.5
2017-12-26T09:57:10.975Z,27.4
2017-12-26T09:58:08.487Z,27.5
2017-12-26T09:59:08.493Z,27.5
2017-12-26T10:00:08.524Z,27.5
2017-12-26T10:01:11.479Z,27.5
2017-12-26T10:02:08.356Z,27.5
2017-12-26T10:03:11.554Z,27.5
2017-12-26T10:04:11.578Z,27.5
2017-12-26T10:05:08.661Z,27.5
2017-12-26T10:06:08.402Z,27.5
2017-12-26T10:07:11.690Z,27.5
2017-12-26T10:08:11.731Z,27.5
2017-12-26T10:09:11.754Z,27.5
2017-12-26T10:10:11.715Z,27.5
2017-12-26T10:11:08.625Z,27.5
2017-12-26T10:12:08.634Z,27.5
2017-12-26T10:13:08.729Z,27.5
2017-12-26T10:14:11.679Z,27.5
2017-12-26T10:15:09.229Z,27.6
2017-12-26T10:16:09.240Z,27.6
2017-12-26T10:17:08.913Z,27.6
2017-12-26T10:18:12.151Z,27.6
2017-12-26T10:19:08.989Z,27.6
2017-12-26T10:20:11.926Z,27.6
2017-12-26T10:21:09.043Z,27.6
2017-12-26T10:22:11.989Z,27.6
2017-12-26T10:23:12.319Z,27.6
2017-12-26T10:24:09.259Z,27.6
2017-12-26T10:25:09.193Z,27.6
2017-12-26T10:26:12.485Z,27.6
2017-12-26T10:27:12.521Z,27.6
2017-12-26T10:28:12.556Z,27.6
2017-12-26T10:29:12.660Z,27.6
2017-12-26T10:30:12.696Z,27.7
2017-12-26T10:31:09.946Z,27.7
2017-12-26T10:32:12.810Z,27.7
2017-12-26T10:33:10.066Z,27.7
2017-12-26T10:34:13.019Z,27.7
2017-12-26T10:35:13.082Z,27.7
2017-12-26T10:36:13.048Z,27.8
2017-12-26T10:37:13.028Z,27.8
2017-12-26T10:38:13.111Z,27.8
2017-12-26T10:39:10.231Z,27.8
2017-12-26T10:40:10.339Z,27.9
2017-12-26T10:41:10.281Z,27.9
2017-12-26T10:42:10.250Z,28
2017-12-26T10:43:13.221Z,28
2017-12-26T10:44:10.381Z,28.1
2017-12-26T10:45:13.434Z,28.1
2017-12-26T10:46:10.515Z,28.1
2017-12-26T10:47:13.485Z,28.1
2017-12-26T10:48:13.516Z,28
2017-12-26T10:49:10.722Z,28
2017-12-26T10:50:10.816Z,28.1
2017-12-26T10:51:10.838Z,28.1
2017-12-26T10:52:13.842Z,28.1
2017-12-26T10:53:13.909Z,28.1
2017-12-26T10:54:13.941Z,28.1
2017-12-26T10:55:14.033Z,28.1
2017-12-26T10:56:14.066Z,28.1
2017-12-26T10:57:14.167Z,28.2
2017-12-26T10:58:14.131Z,28.2
2017-12-26T10:59:11.382Z,28.2
2017-12-26T11:00:14.314Z,28.3
2017-12-26T11:01:14.357Z,28.4
2017-12-26T11:02:14.283Z,28.3
2017-12-26T11:03:14.358Z,28.4
2017-12-26T11:04:11.449Z,28.4
2017-12-26T11:05:11.582Z,28.4
2017-12-26T11:06:16.930Z,28.5
2017-12-26T11:07:14.558Z,28.5
2017-12-26T11:08:11.683Z,28.5
2017-12-26T11:09:14.641Z,28.5
2017-12-26T11:10:17.175Z,28.5
2017-12-26T11:11:14.728Z,28.5
2017-12-26T11:12:11.863Z,28.4
2017-12-26T11:13:11.921Z,28.4
2017-12-26T11:14:11.959Z,28.3
2017-12-26T11:15:14.905Z,28.3
2017-12-26T11:16:14.924Z,28.3
2017-12-26T11:17:12.122Z,28.3
2017-12-26T11:18:15.070Z,28.3
2017-12-26T11:19:12.234Z,28.3
2017-12-26T11:20:15.234Z,28.2
2017-12-26T11:21:15.221Z,28.2
2017-12-26T11:22:15.309Z,28.2
2017-12-26T11:23:12.418Z,28.2
2017-12-26T11:24:12.445Z,28.2
2017-12-26T11:25:12.586Z,28.3
2017-12-26T11:26:12.589Z,28.3
2017-12-26T11:27:15.463Z,28.4
2017-12-26T11:28:12.592Z,28.4
2017-12-26T11:29:15.566Z,28.4
2017-12-26T11:30:12.784Z,28.5
2017-12-26T11:31:12.875Z,28.5
2017-12-26T11:32:13.008Z,28.5
2017-12-26T11:33:12.981Z,28.5
2017-12-26T11:34:13.043Z,28.6
2017-12-26T11:35:16.021Z,28.6
2017-12-26T11:36:16.022Z,28.6
2017-12-26T11:37:13.167Z,28.6
2017-12-26T11:38:13.212Z,28.6
2017-12-26T11:39:16.127Z,28.7
2017-12-26T11:40:16.133Z,28.8
2017-12-26T11:41:13.340Z,28.9
2017-12-26T11:42:16.293Z,29
2017-12-26T11:43:13.413Z,29.1
2017-12-26T11:44:13.565Z,29
2017-12-26T11:45:13.567Z,29
2017-12-26T11:46:13.559Z,29
2017-12-26T11:47:16.468Z,29
2017-12-26T11:48:13.624Z,28.9
2017-12-26T11:49:16.617Z,28.9
2017-12-26T11:50:13.758Z,28.9
2017-12-26T11:51:16.701Z,28.8
2017-12-26T11:52:16.724Z,28.7
2017-12-26T11:53:13.821Z,28.6
2017-12-26T11:54:14.032Z,28.6
2017-12-26T11:55:13.956Z,28.5
2017-12-26T11:56:16.854Z,28.5
2017-12-26T11:57:16.977Z,28.4
2017-12-26T11:58:14.070Z,28.4
2017-12-26T11:59:17.148Z,28.4
2017-12-26T12:00:17.159Z,28.5
2017-12-26T12:01:17.248Z,28.5
2017-12-26T12:02:14.341Z,28.6
2017-12-26T12:03:14.445Z,28.8
2017-12-26T12:04:14.512Z,28.9
2017-12-26T12:05:17.427Z,29
2017-12-26T12:06:17.529Z,29.1
2017-12-26T12:07:14.657Z,29.1
2017-12-26T12:08:17.575Z,29.2
2017-12-26T12:09:14.706Z,29.2
2017-12-26T12:10:14.761Z,29.1
2017-12-26T12:11:17.728Z,29
2017-12-26T12:12:14.862Z,29
2017-12-26T12:13:17.801Z,28.9
2017-12-26T12:14:14.945Z,28.8
2017-12-26T12:15:17.892Z,28.8
2017-12-26T12:16:15.100Z,28.7
2017-12-26T12:17:15.145Z,28.7
2017-12-26T12:18:15.191Z,28.6
2017-12-26T12:19:18.065Z,28.5
2017-12-26T12:20:18.102Z,28.5
2017-12-26T12:21:18.112Z,28.5
2017-12-26T12:22:18.199Z,28.4
2017-12-26T12:23:18.365Z,28.4
2017-12-26T12:24:15.434Z,28.4
2017-12-26T12:25:18.446Z,28.4
2017-12-26T12:26:15.548Z,28.4
2017-12-26T12:27:15.694Z,28.4
2017-12-26T12:28:15.728Z,28.5
2017-12-26T12:29:15.765Z,28.5
2017-12-26T12:30:15.708Z,28.5
2017-12-26T12:31:18.721Z,28.5
2017-12-26T12:32:18.716Z,28.6
2017-12-26T12:33:18.716Z,28.6
2017-12-26T12:34:15.817Z,28.7
2017-12-26T12:35:18.827Z,28.8
2017-12-26T12:36:18.817Z,28.8
2017-12-26T12:37:16.020Z,28.8
2017-12-26T12:38:18.986Z,28.9
2017-12-26T12:39:16.191Z,28.9
2017-12-26T12:40:19.158Z,29
2017-12-26T12:41:16.262Z,29
2017-12-26T12:42:16.276Z,29
2017-12-26T12:43:16.341Z,29
2017-12-26T12:44:16.277Z,29
2017-12-26T12:45:19.305Z,29
2017-12-26T12:46:16.401Z,29
2017-12-26T12:47:16.500Z,29
2017-12-26T12:48:19.428Z,29
2017-12-26T12:49:19.587Z,29.1
2017-12-26T12:50:19.614Z,29.1
2017-12-26T12:51:19.651Z,29.2
2017-12-26T12:52:16.806Z,29.2
2017-12-26T12:53:19.801Z,29.3
2017-12-26T12:54:19.864Z,29.4
2017-12-26T12:55:19.879Z,29.4
2017-12-26T12:56:16.960Z,29.5
2017-12-26T12:57:16.992Z,29.5
2017-12-26T12:58:19.962Z,29.5
2017-12-26T12:59:17.055Z,29.5
2017-12-26T13:00:17.080Z,29.5
2017-12-26T13:01:17.130Z,29.5
2017-12-26T13:02:20.104Z,29.5
2017-12-26T13:03:17.234Z,29.5
2017-12-26T13:04:20.129Z,29.5
2017-12-26T13:05:20.183Z,29.5
2017-12-26T13:06:20.142Z,29.5
2017-12-26T13:07:20.301Z,29.5
2017-12-26T13:08:20.293Z,29.4
2017-12-26T13:09:20.448Z,29.4
2017-12-26T13:10:20.466Z,29.4
2017-12-26T13:11:20.454Z,29.4
2017-12-26T13:12:17.663Z,29.3
2017-12-26T13:13:20.536Z,29.3
2017-12-26T13:14:17.639Z,29.2
2017-12-26T13:15:20.651Z,29.2
2017-12-26T13:16:17.762Z,29.1
2017-12-26T13:17:20.732Z,29.1
2017-12-26T13:18:20.817Z,29
2017-12-26T13:19:20.801Z,29
2017-12-26T13:20:20.903Z,28.9
2017-12-26T13:21:20.931Z,28.9